Portada
METAR-TAF:

METAR-TAF

Aeropuertos :

Aeropuerto Internacional de Yamena

Yamena, Chad

latitud: 12-08N, longitud: 015-02E, altitud: 295 m

Observación

El informe se hizo hace 56 minutos, a las 10:00 UTC
Viento 11 kt del sur-sureste
Temperatura 34°C
Humedad 47%
Presión 1012 hPa
Visibilidad: 8000 m

METAR: FTTJ 081000Z 16011KT 8000 NSC 34/21 Q1012 NOSIG

Hora: 11:56 (10:56 UTC)

Pronóstico

El informe se hizo hace 5 horas y 56 minutos, a las 05:00 UTC
Pronóstico válido del 08 a las 06 UTC al 09 a las 12 UTC
Viento 3 kt con dirección variable
Visibilidad: 6000 m
Evolucionando progresivamente
del 08 a las 06 UTC al 08 a las 08 UTC
Viento 10 kt del oeste-suroeste
Probabilidad 30% :
Temporalmente
del 08 a las 15 UTC al 08 a las 22 UTC
Viento 15 kt con dirección variable con ráfagas de 25 kt
Visibilidad: 4000 m
Ventisca alta de polvo, tormenta

TAF: FTTJ 080500Z 0806/0912 VRB03KT 6000 NSC BECMG 0806/0808 24010KT PROB30 TEMPO 0815/0822 VRB15G25KT 4000 BLDU TS

Observaciones y pronósticos meteorológicos de más de 4000 aeropuertos (mensajes METAR y TAF).

Los puntos amarillos y rojos representan las estaciones disponibles.

Ponga el ratón en el punto deseado para ver el nombre de la estación.

Haga clic para ver las observaciones y los pronósticos meteorológicos.

Para cambiar el mapa : haga clic en los botones verdes con una cruz de color negro para hacer un zoom, en el botón verde con un guión para alejar o en las flechas verdes para mapas adyacentes.


METAR-TAF: